Time;durP1;ratioP1;P1;durP2;ratioP2;P2;SDS_P1;SDS_P2;PMS_P1;PMS_P2;Temp;Humidity;BMP_temperature;BMP_pressure;BME280_temperature;BME280_humidity;BME280_pressure;Samples;Min_cycle;Max_cycle;Signal;HPM_P1;HPM_P2
2022/03/12 00:01:17;;;;;;;25.13;17.83;;;;;;;;;;5108421;28;20028;-69
2022/03/12 00:03:43;;;;;;;27.13;17.77;;;;;;;;;;5091425;28;20051;-67
2022/03/12 00:06:09;;;;;;;28.20;17.73;;;;;;;;;;5095772;28;20378;-67
2022/03/12 00:08:47;;;;;;;26.30;16.80;;;;;;;;;;5096574;28;20086;-68
2022/03/12 00:11:23;;;;;;;25.57;16.10;;;;;;;;;;5096863;28;20055;-67
2022/03/12 00:13:50;;;;;;;25.83;15.57;;;;;;;;;;5078782;28;20268;-67
2022/03/12 00:16:22;;;;;;;27.30;17.27;;;;;;;;;;5096453;28;20439;-67
2022/03/12 00:18:52;;;;;;;24.80;17.08;;;;;;;;;;5092857;28;20035;-67
2022/03/12 00:21:18;;;;;;;26.70;17.38;;;;;;;;;;5094724;28;20020;-67
2022/03/12 00:23:49;;;;;;;25.73;17.20;;;;;;;;;;5078623;28;20028;-67
2022/03/12 00:26:16;;;;;;;27.55;16.30;;;;;;;;;;5096190;28;20070;-67
2022/03/12 00:28:43;;;;;;;30.42;16.77;;;;;;;;;;5095918;28;20086;-67
2022/03/12 00:31:09;;;;;;;24.20;14.50;;;;;;;;;;5095354;28;20020;-67
2022/03/12 00:33:35;;;;;;;23.67;14.38;;;;;;;;;;5093398;28;20085;-67
2022/03/12 00:36:02;;;;;;;23.70;14.02;;;;;;;;;;5096040;28;20024;-67
2022/03/12 00:38:29;;;;;;;25.45;15.65;;;;;;;;;;5102954;28;20008;-67
2022/03/12 00:40:55;;;;;;;23.25;14.68;;;;;;;;;;5102344;28;20039;-67
2022/03/12 00:43:21;;;;;;;22.88;15.15;;;;;;;;;;5096175;28;20392;-67
2022/03/12 00:45:48;;;;;;;25.45;15.85;;;;;;;;;;5092245;28;20051;-67
2022/03/12 00:48:15;;;;;;;19.75;11.82;;;;;;;;;;5095164;28;20013;-67
2022/03/12 00:50:41;;;;;;;17.98;12.90;;;;;;;;;;5104965;28;20043;-67
2022/03/12 00:53:07;;;;;;;18.23;12.70;;;;;;;;;;5100585;28;20095;-67
2022/03/12 00:55:34;;;;;;;17.33;12.45;;;;;;;;;;5096251;28;20507;-67
2022/03/12 00:58:00;;;;;;;22.73;11.93;;;;;;;;;;5093940;28;20016;-67
2022/03/12 01:00:26;;;;;;;22.23;11.50;;;;;;;;;;5093707;28;20111;-67
2022/03/12 01:02:52;;;;;;;16.85;10.23;;;;;;;;;;5095922;28;20489;-67
2022/03/12 01:05:21;;;;;;;15.80;10.45;;;;;;;;;;5095461;28;20059;-67
2022/03/12 01:07:48;;;;;;;18.48;11.40;;;;;;;;;;5095740;28;20036;-67
2022/03/12 01:10:14;;;;;;;17.50;11.13;;;;;;;;;;5095743;28;20020;-67
2022/03/12 01:12:43;;;;;;;16.08;11.45;;;;;;;;;;5091919;28;20028;-67
2022/03/12 01:15:09;;;;;;;16.40;11.75;;;;;;;;;;5095794;28;20030;-67
2022/03/12 01:17:35;;;;;;;20.95;10.65;;;;;;;;;;5107200;28;20376;-67
2022/03/12 01:20:02;;;;;;;17.55;11.50;;;;;;;;;;5083645;28;20071;-67
2022/03/12 01:22:32;;;;;;;16.10;9.80;;;;;;;;;;5099781;28;20008;-67
2022/03/12 01:24:58;;;;;;;18.38;10.63;;;;;;;;;;5097241;28;20032;-67
2022/03/12 01:27:24;;;;;;;16.35;10.52;;;;;;;;;;5097275;28;20427;-67
2022/03/12 01:29:50;;;;;;;17.58;10.93;;;;;;;;;;5099147;28;20056;-67
2022/03/12 01:32:18;;;;;;;20.42;13.43;;;;;;;;;;5098970;28;20077;-67
2022/03/12 01:34:44;;;;;;;20.17;13.15;;;;;;;;;;5081777;28;20441;-67
2022/03/12 01:37:10;;;;;;;18.52;12.77;;;;;;;;;;5098649;28;20019;-68
2022/03/12 01:39:36;;;;;;;17.60;11.75;;;;;;;;;;5095585;28;20036;-67
2022/03/12 01:42:03;;;;;;;17.83;11.93;;;;;;;;;;5099048;28;20062;-67
2022/03/12 01:44:29;;;;;;;15.68;10.80;;;;;;;;;;5081152;28;20060;-67
2022/03/12 01:46:55;;;;;;;19.25;11.95;;;;;;;;;;5098956;28;20145;-67
2022/03/12 01:49:23;;;;;;;17.45;12.00;;;;;;;;;;5081338;28;20102;-67
2022/03/12 01:51:50;;;;;;;16.80;10.02;;;;;;;;;;5095387;28;20043;-67
2022/03/12 01:54:20;;;;;;;18.60;10.52;;;;;;;;;;5097537;28;20024;-67
2022/03/12 01:56:46;;;;;;;15.35;9.98;;;;;;;;;;5095020;28;20552;-67
2022/03/12 01:59:13;;;;;;;22.30;11.45;;;;;;;;;;5102987;28;20070;-67
2022/03/12 02:01:39;;;;;;;18.23;11.35;;;;;;;;;;5098964;28;20024;-67
2022/03/12 02:04:07;;;;;;;18.08;11.38;;;;;;;;;;5078791;28;20500;-67
2022/03/12 02:06:33;;;;;;;14.43;9.75;;;;;;;;;;5095911;28;20024;-67
2022/03/12 02:09:00;;;;;;;14.00;9.75;;;;;;;;;;5080150;28;20036;-67
2022/03/12 02:11:29;;;;;;;14.43;9.63;;;;;;;;;;5081208;28;20020;-67
2022/03/12 02:13:57;;;;;;;15.95;10.20;;;;;;;;;;5098874;28;20028;-67
2022/03/12 02:16:23;;;;;;;13.63;8.23;;;;;;;;;;5098080;28;20389;-66
2022/03/12 02:18:49;;;;;;;16.38;10.18;;;;;;;;;;5094813;28;20098;-66
2022/03/12 02:21:18;;;;;;;12.88;9.15;;;;;;;;;;5097274;28;20035;-66
2022/03/12 02:23:45;;;;;;;12.55;7.90;;;;;;;;;;5099071;28;20035;-66
2022/03/12 02:26:11;;;;;;;12.85;9.07;;;;;;;;;;5098053;28;20036;-66
2022/03/12 02:28:37;;;;;;;13.52;8.68;;;;;;;;;;5097793;28;20136;-67
2022/03/12 02:31:05;;;;;;;15.18;7.90;;;;;;;;;;5096649;28;20039;-66
2022/03/12 02:33:31;;;;;;;13.10;7.95;;;;;;;;;;5094907;28;20023;-66
2022/03/12 02:35:58;;;;;;;12.98;7.85;;;;;;;;;;5109007;28;20510;-67
2022/03/12 02:38:28;;;;;;;12.82;8.75;;;;;;;;;;5100705;28;20028;-66
2022/03/12 02:40:54;;;;;;;13.00;8.20;;;;;;;;;;5098372;28;20028;-66
2022/03/12 02:43:27;;;;;;;16.73;8.80;;;;;;;;;;5095149;28;20024;-67
2022/03/12 02:45:54;;;;;;;13.45;6.65;;;;;;;;;;5110122;28;20024;-68
2022/03/12 02:48:22;;;;;;;11.27;7.82;;;;;;;;;;5095340;28;20020;-67
2022/03/12 02:50:48;;;;;;;13.82;7.40;;;;;;;;;;5108235;28;20124;-66
2022/03/12 02:53:14;;;;;;;10.80;5.82;;;;;;;;;;5101465;28;20513;-67
2022/03/12 02:55:41;;;;;;;12.40;5.95;;;;;;;;;;5098064;28;20059;-67
2022/03/12 02:58:11;;;;;;;14.13;7.97;;;;;;;;;;5096655;28;20073;-65
2022/03/12 03:00:37;;;;;;;14.80;8.00;;;;;;;;;;5075794;28;20016;-67
2022/03/12 03:03:04;;;;;;;11.15;7.00;;;;;;;;;;5096751;28;20424;-68
2022/03/12 03:05:41;;;;;;;12.57;7.50;;;;;;;;;;5098088;28;20119;-67
2022/03/12 03:08:07;;;;;;;13.45;8.07;;;;;;;;;;5097630;28;20032;-68
2022/03/12 03:10:35;;;;;;;12.27;7.97;;;;;;;;;;5097850;28;20023;-68
2022/03/12 03:13:15;;;;;;;11.27;6.77;;;;;;;;;;5076653;28;20031;-68
2022/03/12 03:15:41;;;;;;;11.15;7.88;;;;;;;;;;5091433;28;20281;-68
2022/03/12 03:18:10;;;;;;;12.55;6.75;;;;;;;;;;5079000;28;20500;-67
2022/03/12 03:20:36;;;;;;;10.60;6.85;;;;;;;;;;5079719;28;20520;-69
2022/03/12 03:23:02;;;;;;;12.27;7.88;;;;;;;;;;5079886;28;20065;-68
2022/03/12 03:25:28;;;;;;;15.90;7.32;;;;;;;;;;5097138;28;20430;-68
2022/03/12 03:27:54;;;;;;;16.00;7.55;;;;;;;;;;5076508;28;20025;-68
2022/03/12 03:30:20;;;;;;;11.45;6.68;;;;;;;;;;5094590;28;20098;-68
2022/03/12 03:32:46;;;;;;;11.18;7.30;;;;;;;;;;5097721;28;20413;-68
2022/03/12 03:35:12;;;;;;;10.88;6.25;;;;;;;;;;5097042;28;20059;-68
2022/03/12 03:37:37;;;;;;;11.52;6.57;;;;;;;;;;5097253;28;20045;-68
2022/03/12 03:40:04;;;;;;;11.63;6.53;;;;;;;;;;5094342;28;20024;-68
2022/03/12 03:42:30;;;;;;;12.00;7.03;;;;;;;;;;5076133;28;20496;-67
2022/03/12 03:45:02;;;;;;;10.15;7.40;;;;;;;;;;5077678;28;20051;-66
2022/03/12 03:47:28;;;;;;;14.20;6.35;;;;;;;;;;5096999;28;20085;-68
2022/03/12 03:49:55;;;;;;;13.55;7.53;;;;;;;;;;5097322;28;20052;-68
2022/03/12 03:52:21;;;;;;;13.95;7.18;;;;;;;;;;5094162;28;20018;-68
2022/03/12 03:54:47;;;;;;;12.80;6.43;;;;;;;;;;5108274;28;20027;-68
2022/03/12 03:57:16;;;;;;;13.63;7.35;;;;;;;;;;5096154;28;20113;-67
2022/03/12 03:59:42;;;;;;;10.35;6.45;;;;;;;;;;5097095;28;20028;-68
2022/03/12 04:02:08;;;;;;;18.77;6.93;;;;;;;;;;5096924;28;20078;-68
2022/03/12 04:04:36;;;;;;;12.50;7.28;;;;;;;;;;5078770;28;20059;-68
2022/03/12 04:07:02;;;;;;;10.43;6.70;;;;;;;;;;5094422;28;20081;-67
2022/03/12 04:09:29;;;;;;;11.10;6.57;;;;;;;;;;5076132;28;20065;-68
2022/03/12 04:11:55;;;;;;;14.18;6.75;;;;;;;;;;5096229;28;20485;-66
2022/03/12 04:14:21;;;;;;;11.98;7.35;;;;;;;;;;5096225;28;20481;-66
2022/03/12 04:16:47;;;;;;;11.30;6.97;;;;;;;;;;5096632;28;20066;-66
2022/03/12 04:19:14;;;;;;;11.77;6.18;;;;;;;;;;5096162;28;20028;-66
2022/03/12 04:21:40;;;;;;;11.73;6.65;;;;;;;;;;5092146;28;20073;-66
2022/03/12 04:24:06;;;;;;;12.20;7.03;;;;;;;;;;5078062;28;20500;-66
2022/03/12 04:26:35;;;;;;;16.30;6.88;;;;;;;;;;5095875;28;20035;-66
2022/03/12 04:29:08;;;;;;;12.73;7.65;;;;;;;;;;5096183;28;20040;-68
2022/03/12 04:31:35;;;;;;;12.02;7.80;;;;;;;;;;5095729;28;20078;-66
2022/03/12 04:34:01;;;;;;;17.05;7.97;;;;;;;;;;5108221;28;20017;-66
2022/03/12 04:36:27;;;;;;;13.07;7.82;;;;;;;;;;5075490;28;20020;-66
2022/03/12 04:38:54;;;;;;;13.73;7.82;;;;;;;;;;5095835;28;20028;-67
2022/03/12 04:41:20;;;;;;;12.43;7.15;;;;;;;;;;5096147;28;20820;-66
2022/03/12 04:43:47;;;;;;;12.07;8.35;;;;;;;;;;5078651;28;20504;-67
2022/03/12 04:46:13;;;;;;;14.43;7.25;;;;;;;;;;5078237;28;20107;-66
2022/03/12 04:48:39;;;;;;;17.75;8.20;;;;;;;;;;5074054;28;20115;-66
2022/03/12 04:51:05;;;;;;;11.27;7.55;;;;;;;;;;5098633;28;20020;-66
2022/03/12 04:53:32;;;;;;;12.32;7.80;;;;;;;;;;5100325;28;20074;-66
2022/03/12 04:55:58;;;;;;;12.73;7.60;;;;;;;;;;5100316;28;20079;-66
2022/03/12 04:58:25;;;;;;;13.10;7.63;;;;;;;;;;5100124;28;20521;-66
2022/03/12 05:00:51;;;;;;;16.48;7.68;;;;;;;;;;5095934;28;20024;-66
2022/03/12 05:03:19;;;;;;;12.93;8.20;;;;;;;;;;5098635;28;20785;-67
2022/03/12 05:05:46;;;;;;;16.00;8.23;;;;;;;;;;5100530;28;20143;-66
2022/03/12 05:08:14;;;;;;;12.25;7.63;;;;;;;;;;5099856;28;20686;-66
2022/03/12 05:10:41;;;;;;;12.70;8.02;;;;;;;;;;5100050;28;20436;-66
2022/03/12 05:13:07;;;;;;;13.20;8.10;;;;;;;;;;5111663;28;20031;-66
2022/03/12 05:15:38;;;;;;;11.57;7.45;;;;;;;;;;5078527;28;20031;-67
2022/03/12 05:18:11;;;;;;;12.90;8.43;;;;;;;;;;5099224;28;20485;-67
2022/03/12 05:20:39;;;;;;;12.77;7.05;;;;;;;;;;5099953;28;20077;-66
2022/03/12 05:23:07;;;;;;;15.40;8.25;;;;;;;;;;5099479;28;20099;-66
2022/03/12 05:25:34;;;;;;;11.60;7.32;;;;;;;;;;5081969;28;20038;-66
2022/03/12 05:28:00;;;;;;;13.05;8.77;;;;;;;;;;5096783;28;20081;-66
2022/03/12 05:30:27;;;;;;;14.50;7.90;;;;;;;;;;5097217;28;20048;-66
2022/03/12 05:32:53;;;;;;;14.73;8.60;;;;;;;;;;5098975;28;20023;-66
2022/03/12 05:35:20;;;;;;;15.63;8.43;;;;;;;;;;5099371;28;20477;-67
2022/03/12 05:37:51;;;;;;;14.13;8.05;;;;;;;;;;5099510;28;20021;-67
2022/03/12 05:40:19;;;;;;;16.77;9.15;;;;;;;;;;5099121;28;20027;-66
2022/03/12 05:42:45;;;;;;;14.50;8.40;;;;;;;;;;5077080;28;20480;-66
2022/03/12 05:45:12;;;;;;;14.88;9.02;;;;;;;;;;5092325;28;20044;-66
2022/03/12 05:47:39;;;;;;;15.52;7.97;;;;;;;;;;5099852;28;20024;-66
2022/03/12 05:50:09;;;;;;;12.50;8.13;;;;;;;;;;5102965;28;20103;-66
2022/03/12 05:52:39;;;;;;;12.50;8.30;;;;;;;;;;5108419;28;20019;-66
2022/03/12 05:55:08;;;;;;;13.20;8.05;;;;;;;;;;5079281;28;20370;-66
2022/03/12 05:57:34;;;;;;;18.48;7.90;;;;;;;;;;5095404;28;20052;-66
2022/03/12 06:00:03;;;;;;;13.77;8.07;;;;;;;;;;5098757;28;20035;-66
2022/03/12 06:02:29;;;;;;;13.45;8.55;;;;;;;;;;5098483;28;20073;-66
2022/03/12 06:04:58;;;;;;;16.63;8.65;;;;;;;;;;5098181;28;20032;-67
2022/03/12 06:07:24;;;;;;;12.55;7.82;;;;;;;;;;5081289;28;20476;-66
2022/03/12 06:09:50;;;;;;;13.35;7.90;;;;;;;;;;5094988;28;20027;-67
2022/03/12 06:12:17;;;;;;;17.55;8.40;;;;;;;;;;5097479;28;20089;-71
2022/03/12 06:14:55;;;;;;;18.60;8.30;;;;;;;;;;5098838;28;20021;-68
2022/03/12 06:17:22;;;;;;;14.50;8.82;;;;;;;;;;5098392;28;20485;-68
2022/03/12 06:19:48;;;;;;;14.10;8.65;;;;;;;;;;5080897;28;20048;-68
2022/03/12 06:22:14;;;;;;;16.45;8.98;;;;;;;;;;5098128;28;20016;-68
2022/03/12 06:24:40;;;;;;;13.70;8.80;;;;;;;;;;5093943;28;20032;-69
2022/03/12 06:27:07;;;;;;;14.13;8.85;;;;;;;;;;5079495;28;20048;-68
2022/03/12 06:29:34;;;;;;;16.08;9.32;;;;;;;;;;5077464;28;20235;-68
2022/03/12 06:32:01;;;;;;;14.18;8.93;;;;;;;;;;5084958;28;20023;-64
2022/03/12 06:34:28;;;;;;;13.25;8.38;;;;;;;;;;5092088;28;20550;-66
2022/03/12 06:36:54;;;;;;;13.43;9.00;;;;;;;;;;5076358;28;20046;-66
2022/03/12 06:39:20;;;;;;;18.55;9.07;;;;;;;;;;5095353;28;20105;-68
2022/03/12 06:41:46;;;;;;;14.90;8.57;;;;;;;;;;5084231;28;20035;-66
2022/03/12 06:44:14;;;;;;;16.00;8.82;;;;;;;;;;5097765;28;20071;-67
2022/03/12 06:46:40;;;;;;;14.90;8.10;;;;;;;;;;5078994;28;20532;-66
2022/03/12 06:49:06;;;;;;;13.73;8.82;;;;;;;;;;5095864;28;20121;-66
2022/03/12 06:51:33;;;;;;;17.20;9.23;;;;;;;;;;5075241;28;20028;-66
2022/03/12 06:54:00;;;;;;;16.75;9.35;;;;;;;;;;5096411;28;20476;-67
2022/03/12 06:56:26;;;;;;;14.63;8.25;;;;;;;;;;5096381;28;20134;-68
2022/03/12 06:58:52;;;;;;;13.82;8.57;;;;;;;;;;5096903;28;20116;-66
2022/03/12 07:01:18;;;;;;;13.68;9.13;;;;;;;;;;5096808;28;20018;-66
2022/03/12 07:03:44;;;;;;;18.17;9.77;;;;;;;;;;5094036;28;20051;-65
2022/03/12 07:06:10;;;;;;;16.50;9.00;;;;;;;;;;5106692;28;20538;-66
2022/03/12 07:08:36;;;;;;;15.52;9.10;;;;;;;;;;5104676;28;20032;-68
2022/03/12 07:11:05;;;;;;;16.17;9.70;;;;;;;;;;5085963;28;20032;-68
2022/03/12 07:13:31;;;;;;;12.57;8.48;;;;;;;;;;5075637;28;20035;-67
2022/03/12 07:15:57;;;;;;;16.50;9.15;;;;;;;;;;5090681;28;20039;-67
2022/03/12 07:18:24;;;;;;;16.40;9.77;;;;;;;;;;5075047;28;20484;-69
2022/03/12 07:20:50;;;;;;;15.60;8.88;;;;;;;;;;5085989;28;20081;-69
2022/03/12 07:23:16;;;;;;;12.15;7.90;;;;;;;;;;5100998;27;20059;-68
2022/03/12 07:25:42;;;;;;;14.20;9.00;;;;;;;;;;5099452;28;20042;-69
2022/03/12 07:28:10;;;;;;;21.10;8.68;;;;;;;;;;5080155;28;20035;-68
2022/03/12 07:30:36;;;;;;;16.63;8.63;;;;;;;;;;5084591;28;20044;-68
2022/03/12 07:33:02;;;;;;;15.13;9.60;;;;;;;;;;5095210;28;20159;-68
2022/03/12 07:35:28;;;;;;;15.73;9.20;;;;;;;;;;5078603;28;20042;-68
2022/03/12 07:37:54;;;;;;;17.40;9.45;;;;;;;;;;5098911;28;20118;-68
2022/03/12 07:40:20;;;;;;;15.43;9.15;;;;;;;;;;5098297;28;20130;-69
2022/03/12 07:42:47;;;;;;;16.88;9.10;;;;;;;;;;5066672;28;20036;-69
2022/03/12 07:45:13;;;;;;;15.55;9.52;;;;;;;;;;5099582;28;20027;-69
2022/03/12 07:47:39;;;;;;;16.88;9.45;;;;;;;;;;5070418;28;20028;-71
2022/03/12 07:50:07;;;;;;;17.58;8.93;;;;;;;;;;5090624;28;20042;-71
2022/03/12 07:52:33;;;;;;;17.60;9.70;;;;;;;;;;5090092;28;20052;-71
2022/03/12 07:54:59;;;;;;;12.98;9.20;;;;;;;;;;5087089;28;20148;-71
2022/03/12 07:57:28;;;;;;;14.27;8.93;;;;;;;;;;5071067;28;20115;-71
2022/03/12 07:59:54;;;;;;;15.07;8.95;;;;;;;;;;5091878;28;20401;-68
2022/03/12 08:02:20;;;;;;;17.40;9.27;;;;;;;;;;5095686;28;20748;-68
2022/03/12 08:04:46;;;;;;;16.30;9.77;;;;;;;;;;5091672;28;20042;-68
2022/03/12 08:07:12;;;;;;;19.05;9.57;;;;;;;;;;5095114;28;20069;-68
2022/03/12 08:09:38;;;;;;;14.05;8.73;;;;;;;;;;5073887;28;20040;-68
2022/03/12 08:12:04;;;;;;;15.48;9.27;;;;;;;;;;5099353;28;20028;-74
2022/03/12 08:14:32;;;;;;;14.27;9.23;;;;;;;;;;5097289;28;20035;-69
2022/03/12 08:16:59;;;;;;;13.63;8.65;;;;;;;;;;5087229;28;20388;-66
2022/03/12 08:19:25;;;;;;;14.43;9.13;;;;;;;;;;5104679;28;20508;-69
2022/03/12 08:21:52;;;;;;;17.15;8.90;;;;;;;;;;5074123;28;20020;-69
2022/03/12 08:24:18;;;;;;;16.63;9.07;;;;;;;;;;5092763;28;20423;-69
2022/03/12 08:26:46;;;;;;;17.10;9.77;;;;;;;;;;5086751;28;20024;-69
2022/03/12 08:29:15;;;;;;;13.75;9.75;;;;;;;;;;5107200;28;20056;-69
2022/03/12 08:31:42;;;;;;;14.40;8.05;;;;;;;;;;5101027;28;20057;-70
2022/03/12 08:34:09;;;;;;;15.75;9.32;;;;;;;;;;5091092;28;20046;-70
2022/03/12 08:36:35;;;;;;;15.98;9.43;;;;;;;;;;5072677;28;20504;-69
2022/03/12 08:39:01;;;;;;;19.02;9.35;;;;;;;;;;5095249;28;20024;-69
2022/03/12 08:41:27;;;;;;;16.35;9.68;;;;;;;;;;5095022;28;20021;-70
2022/03/12 08:43:53;;;;;;;13.32;8.02;;;;;;;;;;5095489;28;20028;-68
2022/03/12 08:46:19;;;;;;;16.45;9.15;;;;;;;;;;5094375;28;20024;-67
2022/03/12 08:48:45;;;;;;;12.50;8.57;;;;;;;;;;5107073;28;20496;-67
2022/03/12 08:51:12;;;;;;;13.95;8.20;;;;;;;;;;5106161;28;20023;-70
2022/03/12 08:53:38;;;;;;;13.57;8.05;;;;;;;;;;5095318;28;20035;-64
2022/03/12 08:56:05;;;;;;;15.27;9.43;;;;;;;;;;5094006;28;20111;-68
2022/03/12 08:58:31;;;;;;;13.48;8.15;;;;;;;;;;5095296;28;20020;-66
2022/03/12 09:00:58;;;;;;;16.02;10.07;;;;;;;;;;5091619;28;20102;-67
2022/03/12 09:03:25;;;;;;;13.25;7.78;;;;;;;;;;5071843;28;20031;-68
2022/03/12 09:05:52;;;;;;;14.95;8.98;;;;;;;;;;5104191;28;20081;-67
2022/03/12 09:08:18;;;;;;;15.27;8.65;;;;;;;;;;5096409;28;20032;-68
2022/03/12 09:10:44;;;;;;;14.68;8.35;;;;;;;;;;5095114;28;20036;-66
2022/03/12 09:13:13;;;;;;;14.77;8.30;;;;;;;;;;5091906;28;20030;-67
2022/03/12 09:15:39;;;;;;;14.48;8.45;;;;;;;;;;5106177;28;20042;-68
2022/03/12 09:18:06;;;;;;;14.18;9.02;;;;;;;;;;5085896;28;20088;-67
2022/03/12 09:20:43;;;;;;;14.57;8.98;;;;;;;;;;5094545;28;20030;-68
2022/03/12 09:23:09;;;;;;;19.00;9.80;;;;;;;;;;5094450;28;20032;-68
2022/03/12 09:25:35;;;;;;;13.20;8.32;;;;;;;;;;5076774;28;20428;-66
2022/03/12 09:28:01;;;;;;;15.77;8.45;;;;;;;;;;5090521;28;20028;-67
2022/03/12 09:30:27;;;;;;;14.95;9.02;;;;;;;;;;5089873;28;20404;-67
2022/03/12 09:32:54;;;;;;;14.65;8.57;;;;;;;;;;5083997;28;20076;-67
2022/03/12 09:35:20;;;;;;;16.02;9.25;;;;;;;;;;5097882;28;20055;-67
2022/03/12 09:37:46;;;;;;;17.65;9.18;;;;;;;;;;5087829;28;20024;-66
2022/03/12 09:40:15;;;;;;;13.63;7.38;;;;;;;;;;5093546;28;20023;-66
2022/03/12 09:42:41;;;;;;;14.70;8.90;;;;;;;;;;5075852;28;20068;-67
2022/03/12 09:45:07;;;;;;;18.75;9.52;;;;;;;;;;5096934;28;20039;-67
2022/03/12 09:47:34;;;;;;;13.65;9.15;;;;;;;;;;5077961;28;20020;-67
2022/03/12 09:50:00;;;;;;;13.70;8.60;;;;;;;;;;5097523;28;20031;-68
2022/03/12 09:52:26;;;;;;;15.77;9.57;;;;;;;;;;5097340;28;20386;-68
2022/03/12 09:54:52;;;;;;;14.15;9.23;;;;;;;;;;5092352;28;20046;-67
2022/03/12 09:57:18;;;;;;;15.40;9.30;;;;;;;;;;5095298;28;20480;-68
2022/03/12 09:59:44;;;;;;;16.05;9.07;;;;;;;;;;5087961;28;20028;-67
2022/03/12 10:02:10;;;;;;;16.30;8.88;;;;;;;;;;5095331;28;20059;-71
2022/03/12 10:04:36;;;;;;;18.20;8.98;;;;;;;;;;5078829;28;20477;-68
2022/03/12 10:07:03;;;;;;;15.23;8.77;;;;;;;;;;5094684;28;20035;-70
2022/03/12 10:09:30;;;;;;;14.63;8.73;;;;;;;;;;5109200;28;20050;-70
2022/03/12 10:11:56;;;;;;;13.13;8.20;;;;;;;;;;5110056;28;20024;-68
2022/03/12 10:14:24;;;;;;;17.45;8.23;;;;;;;;;;5098797;28;20110;-68
2022/03/12 10:16:50;;;;;;;15.95;8.45;;;;;;;;;;5095726;28;20028;-68
2022/03/12 10:19:19;;;;;;;14.05;8.65;;;;;;;;;;5095732;28;20388;-68
2022/03/12 10:21:45;;;;;;;15.38;9.05;;;;;;;;;;5092438;28;20024;-67
2022/03/12 10:24:11;;;;;;;13.32;7.50;;;;;;;;;;5107371;28;20476;-67
2022/03/12 10:26:38;;;;;;;13.63;7.80;;;;;;;;;;5096056;28;20051;-67
2022/03/12 10:29:04;;;;;;;15.02;9.05;;;;;;;;;;5102397;28;20408;-67
2022/03/12 10:31:31;;;;;;;15.57;9.02;;;;;;;;;;5104924;28;20111;-68
2022/03/12 10:34:16;;;;;;;13.60;9.00;;;;;;;;;;5092973;28;20031;-69
2022/03/12 10:36:42;;;;;;;16.40;9.05;;;;;;;;;;5075893;28;20035;-69
2022/03/12 10:39:09;;;;;;;13.80;8.38;;;;;;;;;;5097215;28;20027;-69
2022/03/12 10:41:37;;;;;;;15.50;8.63;;;;;;;;;;5097701;28;20358;-69
2022/03/12 10:44:03;;;;;;;15.57;8.75;;;;;;;;;;5098167;28;20024;-67
2022/03/12 10:46:29;;;;;;;15.30;9.50;;;;;;;;;;5097687;28;20088;-69
2022/03/12 10:48:56;;;;;;;14.63;9.55;;;;;;;;;;5075792;28;20024;-67
2022/03/12 10:51:29;;;;;;;12.65;7.30;;;;;;;;;;5077264;28;20028;-67
2022/03/12 10:54:04;;;;;;;13.00;8.52;;;;;;;;;;5090483;28;20031;-69
2022/03/12 10:56:42;;;;;;;13.75;7.85;;;;;;;;;;5083799;28;20448;-69
2022/03/12 10:59:12;;;;;;;14.45;9.10;;;;;;;;;;5097635;28;20102;-69
2022/03/12 11:01:45;;;;;;;14.27;8.63;;;;;;;;;;5079150;28;20039;-68
2022/03/12 11:04:22;;;;;;;12.93;7.38;;;;;;;;;;5093982;28;20024;-71
2022/03/12 11:06:49;;;;;;;13.50;8.70;;;;;;;;;;5076164;28;20391;-70
2022/03/12 11:09:19;;;;;;;15.60;8.48;;;;;;;;;;5077994;28;20024;-70
2022/03/12 11:11:46;;;;;;;14.60;8.95;;;;;;;;;;5097998;28;20112;-70
2022/03/12 11:14:22;;;;;;;14.55;8.38;;;;;;;;;;5095943;27;20089;-71
2022/03/12 11:16:56;;;;;;;16.83;9.98;;;;;;;;;;5095178;28;20695;-71
2022/03/12 11:19:37;;;;;;;13.75;7.60;;;;;;;;;;5095015;28;20489;-70
2022/03/12 11:22:09;;;;;;;13.93;8.18;;;;;;;;;;5091012;28;20456;-69
2022/03/12 11:24:44;;;;;;;16.95;8.70;;;;;;;;;;5087999;28;20024;-68
2022/03/12 11:27:12;;;;;;;14.05;8.38;;;;;;;;;;5071151;28;20038;-69
2022/03/12 11:29:38;;;;;;;;;;;;;;;;;;5083336;28;20139;-69
2022/03/12 11:32:06;;;;;;;12.52;7.85;;;;;;;;;;5095234;28;20034;-68
2022/03/12 11:34:34;;;;;;;15.35;9.52;;;;;;;;;;5095154;28;20119;-69
2022/03/12 11:37:06;;;;;;;13.70;8.23;;;;;;;;;;5105161;28;20507;-68
2022/03/12 11:39:37;;;;;;;16.35;8.85;;;;;;;;;;5102595;28;20019;-69
2022/03/12 11:42:11;;;;;;;13.88;8.80;;;;;;;;;;5108949;28;20012;-69
2022/03/12 11:44:41;;;;;;;14.63;8.68;;;;;;;;;;5108991;28;20023;-69
2022/03/12 11:47:07;;;;;;;14.82;9.32;;;;;;;;;;5109335;28;20059;-69
2022/03/12 11:49:34;;;;;;;14.05;9.07;;;;;;;;;;5107853;28;20020;-68
2022/03/12 11:52:00;;;;;;;15.00;8.63;;;;;;;;;;5109693;28;20027;-71
2022/03/12 11:54:26;;;;;;;15.98;9.57;;;;;;;;;;5091232;28;20055;-69
2022/03/12 11:56:52;;;;;;;16.05;9.27;;;;;;;;;;5110222;28;20502;-70
2022/03/12 11:59:19;;;;;;;15.23;9.23;;;;;;;;;;5090001;28;20020;-68
2022/03/12 12:01:56;;;;;;;14.07;9.35;;;;;;;;;;5091312;28;20434;-66
2022/03/12 12:04:22;;;;;;;15.67;9.60;;;;;;;;;;5109545;28;20016;-66
2022/03/12 12:06:49;;;;;;;16.35;9.35;;;;;;;;;;5109076;28;20046;-66
2022/03/12 12:09:15;;;;;;;16.15;9.40;;;;;;;;;;5110178;28;20019;-67
2022/03/12 12:11:41;;;;;;;14.07;9.20;;;;;;;;;;5109155;28;20028;-67
2022/03/12 12:14:07;;;;;;;13.18;8.98;;;;;;;;;;5108891;28;20027;-66
2022/03/12 12:16:33;;;;;;;12.18;7.97;;;;;;;;;;5108875;28;20095;-67
2022/03/12 12:18:59;;;;;;;14.07;8.60;;;;;;;;;;5105006;28;20417;-65
2022/03/12 12:21:25;;;;;;;13.60;8.85;;;;;;;;;;5105677;28;20015;-66
2022/03/12 12:23:52;;;;;;;15.00;9.30;;;;;;;;;;5089800;28;20116;-66
2022/03/12 12:26:20;;;;;;;15.93;9.63;;;;;;;;;;5104952;28;20074;-66
2022/03/12 12:28:50;;;;;;;18.20;9.60;;;;;;;;;;5104530;28;20054;-66
2022/03/12 12:31:26;;;;;;;17.38;10.30;;;;;;;;;;5084490;28;20052;-66
2022/03/12 12:33:55;;;;;;;14.63;9.20;;;;;;;;;;5102019;28;20477;-65
2022/03/12 12:36:21;;;;;;;13.50;8.30;;;;;;;;;;5084340;28;20456;-66
2022/03/12 12:39:06;;;;;;;15.02;8.63;;;;;;;;;;5084911;28;20112;-66
2022/03/12 12:41:52;;;;;;;15.77;9.85;;;;;;;;;;5099661;28;20103;-66
2022/03/12 12:44:33;;;;;;;15.52;9.77;;;;;;;;;;5103351;28;20037;-66
2022/03/12 12:47:01;;;;;;;14.55;9.18;;;;;;;;;;5085760;28;20122;-68
2022/03/12 12:49:36;;;;;;;15.30;8.15;;;;;;;;;;5104609;28;20165;-70
2022/03/12 12:52:03;;;;;;;14.35;9.02;;;;;;;;;;5087156;28;20035;-68
2022/03/12 12:54:48;;;;;;;14.20;9.15;;;;;;;;;;5089483;28;20116;-69
2022/03/12 12:57:14;;;;;;;14.77;9.35;;;;;;;;;;5108012;28;20030;-70
2022/03/12 12:59:48;;;;;;;15.75;9.50;;;;;;;;;;5107444;28;20480;-69
2022/03/12 13:02:14;;;;;;;14.55;9.40;;;;;;;;;;5088857;28;20043;-70
2022/03/12 13:04:45;;;;;;;18.17;10.07;;;;;;;;;;5108072;28;20027;-70
2022/03/12 13:07:19;;;;;;;15.05;9.13;;;;;;;;;;5088794;28;20034;-68
2022/03/12 13:09:48;;;;;;;14.32;9.30;;;;;;;;;;5108227;28;20020;-68
2022/03/12 13:12:15;;;;;;;15.88;8.98;;;;;;;;;;5112669;28;20515;-68
2022/03/12 13:14:45;;;;;;;14.70;9.98;;;;;;;;;;5099439;28;20123;-69
2022/03/12 13:17:25;;;;;;;18.63;9.68;;;;;;;;;;5088721;28;20030;-69
2022/03/12 13:19:51;;;;;;;14.27;9.85;;;;;;;;;;5091329;28;20119;-70
2022/03/12 13:22:19;;;;;;;13.77;9.55;;;;;;;;;;5094961;28;20106;-69
2022/03/12 13:24:48;;;;;;;14.10;10.10;;;;;;;;;;5110436;28;20459;-71
2022/03/12 13:27:23;;;;;;;14.60;9.20;;;;;;;;;;5094486;28;20024;-70
2022/03/12 13:30:05;;;;;;;15.60;9.93;;;;;;;;;;5113235;28;20039;-70
2022/03/12 13:32:31;;;;;;;13.85;8.80;;;;;;;;;;5110324;28;20141;-71
2022/03/12 13:35:01;;;;;;;15.98;9.32;;;;;;;;;;5111522;28;20024;-69
2022/03/12 13:37:27;;;;;;;15.60;9.52;;;;;;;;;;5110326;28;20079;-69
2022/03/12 13:40:14;;;;;;;15.90;9.52;;;;;;;;;;5111421;28;20020;-71
2022/03/12 13:42:40;;;;;;;14.18;8.93;;;;;;;;;;5110157;28;20082;-70
2022/03/12 13:45:07;;;;;;;15.32;9.15;;;;;;;;;;5114144;28;20024;-70
2022/03/12 13:47:34;;;;;;;14.35;9.10;;;;;;;;;;5110030;28;20035;-70
2022/03/12 13:50:00;;;;;;;15.02;9.05;;;;;;;;;;5094934;28;20015;-70
2022/03/12 13:52:27;;;;;;;14.50;8.65;;;;;;;;;;5110991;28;20518;-70
2022/03/12 13:55:00;;;;;;;14.82;8.52;;;;;;;;;;5093254;28;20369;-69
2022/03/12 13:57:27;;;;;;;17.10;9.30;;;;;;;;;;5093792;28;20102;-69
2022/03/12 14:00:00;;;;;;;15.88;9.45;;;;;;;;;;5112360;28;20019;-70
2022/03/12 14:02:26;;;;;;;13.38;9.07;;;;;;;;;;5094670;28;20036;-70
2022/03/12 14:04:55;;;;;;;12.52;8.50;;;;;;;;;;5110922;28;20032;-69
2022/03/12 14:07:21;;;;;;;14.52;9.15;;;;;;;;;;5111025;28;20019;-70
2022/03/12 14:09:47;;;;;;;15.20;9.13;;;;;;;;;;5094247;28;20081;-70
2022/03/12 14:12:18;;;;;;;14.52;9.27;;;;;;;;;;5093250;28;20023;-70
2022/03/12 14:14:46;;;;;;;13.30;8.30;;;;;;;;;;5094769;28;20035;-70
2022/03/12 14:17:12;;;;;;;12.65;8.48;;;;;;;;;;5094260;28;20106;-69
2022/03/12 14:19:38;;;;;;;14.73;9.00;;;;;;;;;;5112270;28;20488;-70
2022/03/12 14:22:05;;;;;;;13.32;9.30;;;;;;;;;;5111727;28;20057;-69
2022/03/12 14:24:33;;;;;;;16.45;9.88;;;;;;;;;;5093349;28;20063;-70
2022/03/12 14:27:11;;;;;;;14.63;9.38;;;;;;;;;;5112574;28;20023;-69
2022/03/12 14:29:38;;;;;;;;;;;;;;;;;;5111745;28;20072;-69
2022/03/12 14:32:15;;;;;;;22.92;9.45;;;;;;;;;;5112116;28;19912;-70